createdAt,value
2022-08-28T00:00:15.879Z,33.83
2022-08-28T00:02:43.113Z,40.55
2022-08-28T00:05:11.696Z,37.55
2022-08-28T00:07:38.494Z,41.60
2022-08-28T00:10:06.388Z,40.22
2022-08-28T00:12:33.314Z,40.50
2022-08-28T00:15:00.035Z,35.72
2022-08-28T00:17:26.748Z,38.30
2022-08-28T00:19:53.488Z,36.03
2022-08-28T00:22:20.330Z,32.67
2022-08-28T00:24:48.232Z,33.60
2022-08-28T00:27:33.411Z,38.90
2022-08-28T00:30:00.201Z,35.85
2022-08-28T00:32:27.161Z,30.25
2022-08-28T00:34:53.986Z,31.20
2022-08-28T00:37:20.748Z,32.35
2022-08-28T00:39:51.623Z,32.65
2022-08-28T00:42:18.495Z,29.48
2022-08-28T00:44:45.464Z,30.52
2022-08-28T00:47:12.707Z,34.20
2022-08-28T00:49:50.447Z,33.08
2022-08-28T00:52:17.447Z,33.97
2022-08-28T00:54:58.571Z,38.83
2022-08-28T00:57:45.059Z,38.33
2022-08-28T01:00:13.927Z,36.70
2022-08-28T01:02:40.740Z,39.03
2022-08-28T01:05:09.828Z,32.55
2022-08-28T01:07:37.474Z,30.50
2022-08-28T01:10:05.320Z,34.35
2022-08-28T01:12:32.088Z,30.55
2022-08-28T01:15:00.609Z,36.00
2022-08-28T01:17:33.061Z,34.45
2022-08-28T01:20:04.492Z,31.30
2022-08-28T01:23:00.573Z,37.25
2022-08-28T01:25:31.594Z,35.15
2022-08-28T01:27:58.652Z,34.75
2022-08-28T01:30:25.538Z,33.17
2022-08-28T01:32:54.704Z,35.15
2022-08-28T01:35:27.941Z,33.92
2022-08-28T01:37:56.032Z,35.78
2022-08-28T01:40:36.349Z,35.65
2022-08-28T01:43:23.860Z,37.03
2022-08-28T01:45:57.564Z,41.45
2022-08-28T01:48:25.878Z,38.42
2022-08-28T01:50:52.834Z,44.42
2022-08-28T01:53:25.036Z,36.40
2022-08-28T01:55:53.236Z,37.05
2022-08-28T01:58:20.652Z,40.55
2022-08-28T02:00:47.626Z,40.00
2022-08-28T02:03:14.614Z,40.80
2022-08-28T02:05:41.376Z,39.42
2022-08-28T02:08:08.470Z,38.45
2022-08-28T02:10:37.565Z,39.65
2022-08-28T02:13:05.667Z,43.28
2022-08-28T02:15:34.354Z,40.80
2022-08-28T02:18:01.496Z,41.15
2022-08-28T02:20:29.251Z,41.55
2022-08-28T02:22:57.853Z,39.28
2022-08-28T02:25:25.708Z,42.28
2022-08-28T02:27:52.379Z,43.60
2022-08-28T02:30:19.301Z,42.10
2022-08-28T02:32:49.925Z,44.58
2022-08-28T02:35:17.633Z,46.08
2022-08-28T02:37:46.094Z,40.60
2022-08-28T02:40:15.867Z,42.50
2022-08-28T02:42:45.798Z,39.50
2022-08-28T02:45:13.361Z,41.58
2022-08-28T02:47:40.958Z,40.72
2022-08-28T02:50:08.656Z,40.95
2022-08-28T02:52:36.203Z,50.08
2022-08-28T02:55:04.567Z,44.78
2022-08-28T02:57:31.441Z,38.15
2022-08-28T02:59:59.611Z,40.58
2022-08-28T03:02:26.379Z,39.53
2022-08-28T03:04:54.611Z,40.47
2022-08-28T03:07:22.778Z,40.85
2022-08-28T03:09:50.236Z,38.38
2022-08-28T03:12:17.276Z,40.03
2022-08-28T03:14:44.040Z,39.33
2022-08-28T03:17:10.788Z,42.80
2022-08-28T03:19:37.503Z,39.00
2022-08-28T03:22:04.321Z,39.35
2022-08-28T03:24:31.047Z,37.67
2022-08-28T03:26:58.460Z,36.78
2022-08-28T03:29:25.156Z,40.47
2022-08-28T03:31:51.864Z,37.90
2022-08-28T03:34:18.632Z,38.83
2022-08-28T03:36:45.302Z,37.22
2022-08-28T03:39:12.112Z,39.88
2022-08-28T03:41:38.854Z,39.22
2022-08-28T03:44:05.615Z,36.88
2022-08-28T03:46:33.109Z,38.38
2022-08-28T03:49:01.361Z,37.95
2022-08-28T03:51:32.763Z,39.72
2022-08-28T03:54:00.041Z,35.28
2022-08-28T03:56:28.440Z,40.95
2022-08-28T03:58:57.586Z,41.20
2022-08-28T04:01:24.884Z,37.13
2022-08-28T04:03:51.663Z,38.08
2022-08-28T04:06:19.926Z,37.00
2022-08-28T04:08:47.376Z,36.22
2022-08-28T04:11:14.087Z,38.05
2022-08-28T04:13:41.867Z,37.15
2022-08-28T04:16:11.125Z,37.95
2022-08-28T04:18:39.836Z,37.40
2022-08-28T04:21:14.671Z,37.00
2022-08-28T04:23:43.394Z,36.13
2022-08-28T04:26:11.829Z,36.85
2022-08-28T04:28:38.877Z,36.05
2022-08-28T04:31:05.729Z,31.73
2022-08-28T04:33:33.028Z,32.67
2022-08-28T04:36:03.356Z,32.63
2022-08-28T04:38:30.382Z,33.58
2022-08-28T04:40:57.129Z,31.73
2022-08-28T04:43:25.749Z,32.55
2022-08-28T04:45:52.509Z,38.08
2022-08-28T04:48:19.640Z,33.72
2022-08-28T04:50:48.565Z,32.00
2022-08-28T04:53:17.267Z,35.42
2022-08-28T04:55:54.361Z,36.78
2022-08-28T04:58:24.119Z,37.28
2022-08-28T05:00:52.298Z,32.53
2022-08-28T05:03:19.120Z,31.00
2022-08-28T05:05:47.998Z,30.35
2022-08-28T05:08:15.648Z,35.92
2022-08-28T05:10:43.174Z,30.77
2022-08-28T05:13:11.396Z,31.63
2022-08-28T05:15:39.666Z,31.40
2022-08-28T05:18:06.753Z,32.65
2022-08-28T05:20:37.915Z,35.85
2022-08-28T05:23:06.160Z,32.33
2022-08-28T05:25:44.146Z,33.10
2022-08-28T05:28:12.152Z,32.67
2022-08-28T05:30:39.771Z,29.77
2022-08-28T05:33:07.537Z,31.63
2022-08-28T05:35:35.510Z,32.67
2022-08-28T05:38:02.226Z,31.10
2022-08-28T05:40:29.152Z,31.35
2022-08-28T05:42:56.132Z,31.05
2022-08-28T05:45:23.831Z,27.83
2022-08-28T05:47:52.125Z,30.70
2022-08-28T05:50:19.143Z,26.23
2022-08-28T05:52:45.893Z,23.60
2022-08-28T05:55:12.907Z,26.00
2022-08-28T05:57:40.352Z,25.20
2022-08-28T06:00:13.718Z,25.92
2022-08-28T06:02:42.098Z,24.38
2022-08-28T06:05:13.045Z,23.02
2022-08-28T06:07:41.293Z,24.27
2022-08-28T06:10:10.655Z,23.05
2022-08-28T06:12:37.935Z,21.00
2022-08-28T06:15:05.717Z,24.73
2022-08-28T06:17:32.420Z,18.27
2022-08-28T06:19:59.235Z,23.23
2022-08-28T06:22:25.935Z,22.25
2022-08-28T06:24:52.711Z,19.45
2022-08-28T06:27:19.416Z,16.35
2022-08-28T06:29:46.206Z,18.30
2022-08-28T06:32:13.489Z,16.83
2022-08-28T06:34:40.534Z,20.88
2022-08-28T06:37:08.039Z,17.13
2022-08-28T06:39:34.754Z,18.20
2022-08-28T06:42:01.531Z,16.00
2022-08-28T06:44:28.905Z,16.27
2022-08-28T06:46:55.793Z,17.33
2022-08-28T06:49:22.897Z,16.00
2022-08-28T06:51:49.929Z,18.38
2022-08-28T06:54:22.342Z,19.17
2022-08-28T06:56:51.087Z,15.15
2022-08-28T06:59:17.820Z,14.98
2022-08-28T07:01:44.561Z,19.67
2022-08-28T07:04:12.301Z,16.92
2022-08-28T07:06:41.034Z,15.90
2022-08-28T07:09:11.458Z,16.00
2022-08-28T07:11:38.914Z,19.05
2022-08-28T07:14:05.884Z,17.13
2022-08-28T07:16:35.425Z,13.50
2022-08-28T07:19:05.368Z,15.05
2022-08-28T07:21:38.304Z,14.05
2022-08-28T07:24:07.315Z,15.25
2022-08-28T07:26:35.670Z,17.00
2022-08-28T07:29:10.288Z,13.95
2022-08-28T07:31:39.685Z,13.10
2022-08-28T07:34:06.445Z,15.80
2022-08-28T07:36:33.120Z,13.60
2022-08-28T07:38:59.962Z,19.15
2022-08-28T07:41:29.028Z,15.18
2022-08-28T07:44:14.235Z,14.07
2022-08-28T07:46:41.393Z,16.58
2022-08-28T07:49:08.984Z,14.55
2022-08-28T07:51:36.055Z,15.70
2022-08-28T07:54:04.175Z,12.27
2022-08-28T07:56:31.799Z,15.07
2022-08-28T07:58:59.669Z,12.18
2022-08-28T08:01:28.900Z,12.90
2022-08-28T08:04:01.129Z,11.95
2022-08-28T08:06:34.074Z,10.27
2022-08-28T08:09:02.142Z,10.93
2022-08-28T08:11:32.377Z,12.80
2022-08-28T08:14:04.670Z,9.95
2022-08-28T08:16:35.666Z,13.50
2022-08-28T08:19:02.917Z,10.35
2022-08-28T08:21:30.415Z,12.65
2022-08-28T08:23:57.932Z,11.63
2022-08-28T08:26:30.660Z,10.98
2022-08-28T08:28:57.428Z,8.93
2022-08-28T08:31:32.616Z,11.68
2022-08-28T08:34:02.149Z,10.05
2022-08-28T08:36:29.913Z,11.40
2022-08-28T08:38:59.136Z,12.38
2022-08-28T08:41:31.865Z,11.65
2022-08-28T08:44:02.920Z,11.95
2022-08-28T08:46:53.489Z,10.52
2022-08-28T08:49:26.125Z,12.40
2022-08-28T08:52:11.509Z,13.57
2022-08-28T08:54:42.493Z,8.68
2022-08-28T08:57:14.165Z,8.95
2022-08-28T08:59:41.528Z,9.80
2022-08-28T09:02:18.454Z,8.18
2022-08-28T09:04:51.604Z,9.95
2022-08-28T09:07:53.635Z,9.48
2022-08-28T09:10:20.501Z,9.57
2022-08-28T09:12:53.318Z,10.40
2022-08-28T09:15:55.519Z,10.25
2022-08-28T09:18:26.074Z,8.98
2022-08-28T09:20:54.557Z,9.48
2022-08-28T09:23:25.654Z,12.82
2022-08-28T09:26:01.610Z,9.45
2022-08-28T09:28:50.916Z,12.30
2022-08-28T09:31:32.929Z,8.70
2022-08-28T09:34:25.896Z,10.82
2022-08-28T09:39:25.285Z,12.18
2022-08-28T09:42:12.043Z,9.85
2022-08-28T09:44:56.343Z,11.00
2022-08-28T09:47:48.868Z,7.78
2022-08-28T09:50:32.595Z,8.02
2022-08-28T09:53:20.714Z,10.02
2022-08-28T09:56:05.958Z,7.60
2022-08-28T09:58:35.044Z,9.13
2022-08-28T10:01:27.300Z,7.88
2022-08-28T10:04:01.756Z,7.38
2022-08-28T10:06:29.906Z,6.68
2022-08-28T10:09:12.122Z,9.98
2022-08-28T10:11:45.098Z,7.22
2022-08-28T10:14:22.282Z,6.53
2022-08-28T10:16:59.982Z,7.00
2022-08-28T10:19:38.605Z,7.43
2022-08-28T10:22:09.619Z,15.18
2022-08-28T10:24:39.432Z,9.23
2022-08-28T10:27:11.484Z,7.38
2022-08-28T10:29:53.106Z,7.65
2022-08-28T10:32:25.957Z,8.10
2022-08-28T10:35:08.031Z,8.43
2022-08-28T10:37:44.939Z,9.20
2022-08-28T10:40:28.764Z,8.88
2022-08-28T10:43:07.503Z,9.27
2022-08-28T10:45:35.066Z,8.38
2022-08-28T10:48:17.606Z,8.82
2022-08-28T10:50:47.470Z,6.20
2022-08-28T10:53:49.641Z,7.88
2022-08-28T10:56:22.002Z,10.20
2022-08-28T10:58:50.342Z,6.40
2022-08-28T11:01:38.025Z,8.77
2022-08-28T11:04:08.583Z,7.25
2022-08-28T11:06:39.755Z,8.50
2022-08-28T11:09:25.031Z,11.30
2022-08-28T11:12:00.991Z,8.32
2022-08-28T11:14:47.581Z,6.85
2022-08-28T11:17:33.287Z,8.73
2022-08-28T11:20:18.394Z,6.35
2022-08-28T11:22:59.245Z,8.45
2022-08-28T11:25:42.619Z,8.90
2022-08-28T11:28:22.472Z,8.60
2022-08-28T11:31:05.923Z,9.38
2022-08-28T11:33:47.874Z,7.95
2022-08-28T11:36:20.543Z,9.40
2022-08-28T11:38:56.173Z,8.10
2022-08-28T11:41:28.115Z,6.72
2022-08-28T11:44:10.853Z,6.80
2022-08-28T11:46:42.576Z,7.90
2022-08-28T11:49:27.419Z,9.18
2022-08-28T11:52:12.943Z,6.45
2022-08-28T11:54:56.531Z,6.28
2022-08-28T11:57:39.736Z,5.97
2022-08-28T12:00:11.031Z,6.03
2022-08-28T12:02:40.986Z,6.40
2022-08-28T12:05:16.812Z,8.30
2022-08-28T12:07:45.969Z,7.95
2022-08-28T12:10:27.524Z,7.78
2022-08-28T12:13:02.768Z,7.43
2022-08-28T12:15:32.466Z,6.03
2022-08-28T12:18:57.330Z,10.18
2022-08-28T12:21:25.614Z,7.25
2022-08-28T12:24:09.139Z,8.60
2022-08-28T12:26:39.947Z,6.25
2022-08-28T12:29:07.502Z,8.02
2022-08-28T12:31:52.706Z,6.15
2022-08-28T12:34:57.634Z,8.15
2022-08-28T12:37:51.032Z,6.00
2022-08-28T12:40:27.727Z,7.30
2022-08-28T12:43:00.372Z,6.10
2022-08-28T12:45:33.144Z,6.47
2022-08-28T12:48:01.629Z,9.30
2022-08-28T12:50:33.028Z,4.65
2022-08-28T12:53:01.835Z,7.88
2022-08-28T12:55:28.810Z,6.07
2022-08-28T12:57:55.805Z,4.38
2022-08-28T13:00:26.542Z,4.97
2022-08-28T13:02:54.712Z,5.57
2022-08-28T13:05:35.079Z,7.78
2022-08-28T13:08:06.938Z,6.60
2022-08-28T13:13:30.313Z,6.22
2022-08-28T13:16:02.339Z,5.38
2022-08-28T13:18:42.829Z,7.40
2022-08-28T13:21:33.772Z,5.07
2022-08-28T13:24:35.597Z,7.85
2022-08-28T13:27:23.067Z,8.10
2022-08-28T13:30:35.043Z,4.82
2022-08-28T13:33:22.001Z,4.00
2022-08-28T13:35:49.839Z,4.07
2022-08-28T13:38:18.415Z,3.80
2022-08-28T13:40:58.327Z,4.63
2022-08-28T13:43:27.803Z,5.28
2022-08-28T13:45:54.965Z,3.30
2022-08-28T13:48:26.638Z,5.15
2022-08-28T13:50:57.228Z,3.58
2022-08-28T13:53:23.966Z,8.98
2022-08-28T13:55:51.303Z,4.35
2022-08-28T13:58:18.237Z,3.30
2022-08-28T14:00:47.102Z,3.33
2022-08-28T14:03:32.508Z,7.28
2022-08-28T14:05:59.249Z,4.15
2022-08-28T14:08:25.988Z,5.25
2022-08-28T14:10:52.749Z,3.50
2022-08-28T14:13:20.348Z,4.40
2022-08-28T14:15:47.694Z,3.75
2022-08-28T14:18:14.469Z,5.32
2022-08-28T14:20:41.263Z,4.78
2022-08-28T14:23:09.401Z,4.72
2022-08-28T14:25:43.592Z,6.22
2022-08-28T14:28:11.114Z,3.85
2022-08-28T14:30:45.865Z,5.10
2022-08-28T14:33:12.840Z,4.75
2022-08-28T14:35:40.912Z,4.30
2022-08-28T14:38:10.528Z,5.20
2022-08-28T14:40:38.577Z,4.30
2022-08-28T14:43:06.897Z,3.60
2022-08-28T14:45:34.123Z,4.35
2022-08-28T14:48:00.851Z,3.63
2022-08-28T14:50:28.002Z,6.68
2022-08-28T14:52:54.808Z,4.07
2022-08-28T14:55:21.528Z,5.22
2022-08-28T14:57:51.131Z,4.07
2022-08-28T15:00:18.200Z,4.28
2022-08-28T15:02:45.117Z,4.28
2022-08-28T15:05:12.046Z,4.43
2022-08-28T15:07:38.844Z,5.82
2022-08-28T15:10:06.026Z,4.38
2022-08-28T15:12:32.783Z,3.72
2022-08-28T15:14:59.563Z,5.68
2022-08-28T15:17:33.776Z,4.03
2022-08-28T15:20:01.825Z,3.60
2022-08-28T15:22:28.584Z,5.13
2022-08-28T15:24:55.581Z,3.67
2022-08-28T15:27:22.624Z,4.57
2022-08-28T15:29:53.867Z,3.15
2022-08-28T15:32:21.130Z,7.70
2022-08-28T15:34:49.013Z,3.45
2022-08-28T15:37:15.793Z,3.40
2022-08-28T15:40:02.155Z,6.28
2022-08-28T15:42:29.779Z,3.83
2022-08-28T15:44:56.730Z,3.78
2022-08-28T15:47:25.259Z,4.88
2022-08-28T15:49:55.342Z,5.30
2022-08-28T15:52:22.669Z,6.05
2022-08-28T15:54:49.872Z,4.30
2022-08-28T15:57:16.923Z,5.72
2022-08-28T15:59:49.733Z,3.60
2022-08-28T16:02:22.430Z,4.20
2022-08-28T16:04:49.728Z,4.38
2022-08-28T16:07:17.449Z,4.30
2022-08-28T16:09:44.263Z,4.35
2022-08-28T16:12:10.957Z,3.95
2022-08-28T16:14:37.688Z,4.30
2022-08-28T16:17:05.706Z,4.15
2022-08-28T16:19:51.360Z,5.13
2022-08-28T16:22:18.625Z,4.30
2022-08-28T16:24:46.070Z,5.50
2022-08-28T16:27:15.456Z,5.05
2022-08-28T16:29:43.510Z,5.93
2022-08-28T16:32:11.824Z,4.30
2022-08-28T16:34:39.949Z,5.32
2022-08-28T16:37:07.937Z,4.65
2022-08-28T16:39:35.652Z,3.65
2022-08-28T16:42:02.397Z,4.05
2022-08-28T16:44:29.108Z,3.70
2022-08-28T16:46:56.114Z,3.67
2022-08-28T16:49:23.798Z,3.97
2022-08-28T16:51:50.721Z,4.97
2022-08-28T16:54:21.573Z,4.53
2022-08-28T16:56:48.330Z,3.75
2022-08-28T16:59:23.222Z,5.72
2022-08-28T17:01:52.859Z,6.30
2022-08-28T17:04:20.619Z,5.57
2022-08-28T17:06:47.383Z,5.25
2022-08-28T17:09:14.193Z,5.47
2022-08-28T17:11:41.225Z,5.75
2022-08-28T17:14:09.441Z,3.83
2022-08-28T17:16:37.179Z,5.43
2022-08-28T17:19:04.384Z,3.53
2022-08-28T17:21:49.583Z,4.28
2022-08-28T17:24:16.282Z,3.60
2022-08-28T17:26:44.537Z,4.35
2022-08-28T17:29:11.439Z,4.30
2022-08-28T17:31:38.439Z,5.25
2022-08-28T17:34:07.379Z,4.03
2022-08-28T17:36:34.544Z,5.50
2022-08-28T17:39:03.318Z,5.00
2022-08-28T17:41:30.008Z,5.57
2022-08-28T17:43:56.949Z,4.75
2022-08-28T17:46:23.702Z,4.78
2022-08-28T17:48:54.359Z,7.03
2022-08-28T17:51:42.074Z,3.90
2022-08-28T17:54:16.873Z,3.90
2022-08-28T17:56:43.955Z,4.30
2022-08-28T17:59:11.831Z,4.28
2022-08-28T18:01:39.213Z,4.38
2022-08-28T18:04:06.310Z,4.43
2022-08-28T18:06:33.220Z,5.93
2022-08-28T18:09:00.644Z,6.85
2022-08-28T18:11:28.107Z,6.07
2022-08-28T18:13:54.786Z,5.50
2022-08-28T18:16:21.734Z,6.38
2022-08-28T18:18:48.535Z,4.78
2022-08-28T18:21:15.230Z,5.72
2022-08-28T18:23:42.085Z,5.13
2022-08-28T18:26:09.244Z,5.68
2022-08-28T18:28:36.697Z,5.57
2022-08-28T18:31:05.830Z,6.85
2022-08-28T18:33:33.395Z,7.60
2022-08-28T18:36:00.149Z,6.25
2022-08-28T18:38:28.648Z,4.15
2022-08-28T18:40:55.894Z,6.88
2022-08-28T18:43:22.761Z,4.07
2022-08-28T18:45:49.608Z,5.13
2022-08-28T18:48:16.632Z,4.35
2022-08-28T18:50:46.487Z,5.18
2022-08-28T18:53:14.611Z,7.07
2022-08-28T18:55:41.430Z,6.45
2022-08-28T18:58:08.187Z,6.38
2022-08-28T19:00:38.474Z,5.10
2022-08-28T19:03:07.662Z,4.80
2022-08-28T19:05:35.434Z,5.65
2022-08-28T19:08:02.253Z,4.97
2022-08-28T19:10:33.963Z,6.70
2022-08-28T19:13:01.567Z,6.43
2022-08-28T19:15:28.703Z,4.95
2022-08-28T19:17:55.726Z,5.25
2022-08-28T19:20:22.612Z,6.25
2022-08-28T19:22:49.576Z,4.70
2022-08-28T19:25:27.883Z,6.45
2022-08-28T19:27:59.477Z,4.82
2022-08-28T19:30:27.700Z,5.78
2022-08-28T19:32:54.507Z,12.23
2022-08-28T19:35:24.111Z,6.28
2022-08-28T19:37:54.396Z,5.10
2022-08-28T19:40:21.284Z,6.53
2022-08-28T19:42:49.964Z,6.35
2022-08-28T19:45:17.128Z,7.35
2022-08-28T19:47:44.193Z,9.55
2022-08-28T19:50:11.798Z,5.93
2022-08-28T19:52:38.698Z,9.27
2022-08-28T19:55:06.733Z,7.75
2022-08-28T19:57:34.078Z,10.90
2022-08-28T20:00:00.834Z,5.82
2022-08-28T20:02:28.672Z,7.55
2022-08-28T20:04:56.039Z,5.80
2022-08-28T20:07:25.108Z,9.15
2022-08-28T20:09:52.414Z,5.28
2022-08-28T20:12:20.243Z,6.07
2022-08-28T20:14:48.281Z,7.00
2022-08-28T20:17:15.057Z,6.28
2022-08-28T20:19:42.192Z,7.55
2022-08-28T20:22:10.422Z,7.15
2022-08-28T20:24:37.571Z,7.82
2022-08-28T20:27:04.557Z,8.75
2022-08-28T20:29:32.028Z,10.20
2022-08-28T20:31:58.810Z,8.13
2022-08-28T20:34:25.565Z,7.47
2022-08-28T20:36:52.675Z,9.30
2022-08-28T20:39:20.288Z,7.32
2022-08-28T20:41:47.746Z,6.82
2022-08-28T20:44:16.831Z,11.23
2022-08-28T20:46:43.934Z,7.80
2022-08-28T20:49:17.685Z,10.18
2022-08-28T20:51:57.044Z,7.43
2022-08-28T20:54:34.115Z,8.82
2022-08-28T20:57:03.624Z,7.00
2022-08-28T20:59:35.482Z,7.18
2022-08-28T21:02:12.817Z,7.40
2022-08-28T21:04:41.618Z,7.85
2022-08-28T21:07:09.322Z,7.97
2022-08-28T21:10:05.396Z,11.13
2022-08-28T21:12:23.836Z,7.95
2022-08-28T21:14:52.928Z,8.30
2022-08-28T21:17:29.370Z,7.50
2022-08-28T21:20:00.090Z,9.38
2022-08-28T21:22:26.844Z,7.15
2022-08-28T21:24:53.598Z,8.02
2022-08-28T21:27:20.276Z,9.23
2022-08-28T21:29:47.971Z,8.75
2022-08-28T21:32:14.656Z,9.27
2022-08-28T21:34:41.367Z,11.43
2022-08-28T21:37:08.395Z,9.02
2022-08-28T21:39:35.212Z,8.82
2022-08-28T21:42:01.884Z,8.95
2022-08-28T21:44:29.155Z,10.32
2022-08-28T21:46:55.794Z,8.88
2022-08-28T21:49:23.169Z,10.05
2022-08-28T21:51:50.525Z,8.68
2022-08-28T21:54:18.372Z,8.93
2022-08-28T21:56:46.336Z,8.68
2022-08-28T21:59:15.315Z,8.50
2022-08-28T22:01:42.131Z,8.70
2022-08-28T22:04:09.112Z,8.98
2022-08-28T22:06:35.960Z,11.65
2022-08-28T22:09:04.970Z,10.77
2022-08-28T22:11:31.824Z,8.90
2022-08-28T22:13:58.600Z,9.30
2022-08-28T22:16:27.294Z,8.32
2022-08-28T22:18:54.432Z,12.35
2022-08-28T22:21:42.763Z,10.30
2022-08-28T22:24:10.465Z,10.10
2022-08-28T22:26:37.832Z,9.90
2022-08-28T22:29:05.667Z,9.23
2022-08-28T22:31:32.485Z,9.10
2022-08-28T22:33:59.268Z,12.88
2022-08-28T22:36:29.084Z,10.73
2022-08-28T22:38:56.404Z,10.45
2022-08-28T22:41:24.365Z,9.85
2022-08-28T22:43:53.547Z,12.75
2022-08-28T22:46:20.841Z,11.57
2022-08-28T22:48:47.798Z,9.80
2022-08-28T22:51:18.414Z,12.18
2022-08-28T22:53:45.832Z,13.18
2022-08-28T22:56:12.883Z,11.60
2022-08-28T22:58:40.325Z,9.98
2022-08-28T23:01:13.660Z,10.95
2022-08-28T23:03:41.171Z,12.70
2022-08-28T23:06:08.168Z,13.15
2022-08-28T23:08:35.103Z,10.85
2022-08-28T23:11:02.027Z,11.60
2022-08-28T23:13:29.749Z,11.73
2022-08-28T23:15:56.471Z,10.52
2022-08-28T23:18:23.168Z,11.32
2022-08-28T23:20:50.572Z,11.45
2022-08-28T23:23:18.956Z,10.18
2022-08-28T23:25:45.862Z,12.23
2022-08-28T23:28:12.955Z,10.75
2022-08-28T23:30:48.252Z,10.50
2022-08-28T23:33:23.890Z,10.20
2022-08-28T23:35:51.595Z,12.80
2022-08-28T23:38:18.365Z,11.85
2022-08-28T23:40:46.368Z,12.65
2022-08-28T23:43:13.131Z,13.50
2022-08-28T23:45:41.764Z,12.90
2022-08-28T23:48:09.117Z,14.32
2022-08-28T23:50:36.163Z,11.80
2022-08-28T23:53:04.132Z,11.15
2022-08-28T23:55:31.686Z,10.55
2022-08-28T23:58:00.305Z,12.05
